Rock Hill, SC

10:44 AM EST on March 04, 2015 (GMT -0500)
Rock Hill-York County-Bryant | Change Station
CLOSE
Current Station
Airport
Location: Rock Hill,
Elevation: 666 ft
Nearby Weather Stations
Active Advisory: Special Statement

Elev 666 ft 34.99 °N, 81.06 °W | Updated 11 minutes ago

Overcast
Overcast
55 °F
Feels Like 55 °F
N
13
Wind Variable Wind from SW

Today
High -- | Low -- °F
--% Chance of Precip.
Yesterday
High -- | Low -- °F
Precip. -- in
6:50 AM 6:22 PM
Waxing Gibbous, 99% visible
Pressure 30.03 in
Visibility 3.0 miles
Clouds Overcast 200 ft
Dew Point 55 °F
Humidity 100%
Rainfall 0.00 in
Snow Depth Not available.
UV 2 out of 12
Pollen 7.70 out of 12
Air Quality Not available.
Flu Activity Not available.
SPECI KUZA 041533Z AUTO 22011KT 3SM BR OVC002 13/13 A3003 RMK AO2 T01280128

More Conditions Fewer Conditions

Pressure 30.03 in
Visibility 3.0 miles
Clouds Overcast 200 ft
Dew Point 55 °F
Humidity 100%
Rainfall 0.00 in
Snow Depth Not available.
UV 2 out of 12
Pollen 7.70 out of 12
Air Quality Not available.
Flu Activity Not available.
SPECI KUZA 041533Z AUTO 22011KT 3SM BR OVC002 13/13 A3003 RMK AO2 T01280128

More Conditions Fewer Conditions

10-Day Weather Forecast

Almanac

Astronomy

Mar. 04, 2015 Rise Set
Actual Time
Civil Twilight
Nautical Twilight
Astronomical Twilight
Moon
Length of Visible Light
Length of Day
Tomorrow will be .
, % of the Moon is Illuminated

Today's Extremes

State Highs State Lows

Community

WunderPhotos

Upload Photos

1,802,496 photos uploaded!

WunderBlogs® & News

Nearby

Air Quality

  Air Quality AQ Index Pollutant
Not available.

Snow Depth

Station Depth Elevation

Earthquake Activity

City Distance Mag. Time & Date
Minimum magnitude displayed is 2.5.

Coastal Water Temperatures

Place Temperature

Nearby Weather Stations

Special Statement
Statement as of 10:02 AM EST on March 04, 2015

Visibilities are only slowly improving this morning across
upstate South Carolina... portions of northeast Georgia and the
Charlotte Metro area. However... increasing southwest winds will
serve to mix out most of the fog by midday. Until then... be alert
for areas of dense fog with reduced visibilities.